Time;durP1;ratioP1;P1;durP2;ratioP2;P2;SDS_P1;SDS_P2;PMS_P1;PMS_P2;Temp;Humidity;BMP_temperature;BMP_pressure;BME280_temperature;BME280_humidity;BME280_pressure;Samples;Min_cycle;Max_cycle;Signal;HPM_P1;HPM_P2
2024/04/06 00:01:38;;;;;;;16.42;15.00;;;14.20;99.90;;;;;;4983570;28;20042;-70
2024/04/06 00:04:05;;;;;;;16.00;15.07;;;14.10;99.90;;;;;;5012281;28;20037;-69
2024/04/06 00:06:31;;;;;;;15.60;14.55;;;14.10;99.90;;;;;;5007108;28;20069;-69
2024/04/06 00:08:57;;;;;;;15.50;14.50;;;14.10;99.90;;;;;;5000383;28;20046;-69
2024/04/06 00:11:23;;;;;;;15.98;14.73;;;14.20;99.90;;;;;;4986431;28;20107;-70
2024/04/06 00:13:51;;;;;;;15.75;14.60;;;14.20;99.90;;;;;;4993812;28;20041;-68
2024/04/06 00:16:18;;;;;;;16.40;15.00;;;14.30;99.90;;;;;;5002040;28;20056;-70
2024/04/06 00:18:44;;;;;;;15.60;14.50;;;14.40;99.90;;;;;;5003025;28;20053;-68
2024/04/06 00:21:10;;;;;;;15.70;14.90;;;14.40;99.90;;;;;;4983926;28;20656;-69
2024/04/06 00:23:36;;;;;;;16.10;14.90;;;14.40;99.90;;;;;;4992490;28;20042;-71
2024/04/06 00:26:03;;;;;;;15.55;14.50;;;14.40;99.90;;;;;;4983821;28;20041;-69
2024/04/06 00:28:29;;;;;;;15.02;14.13;;;14.40;99.90;;;;;;4988623;28;20037;-70
2024/04/06 00:30:55;;;;;;;16.17;15.00;;;14.50;99.90;;;;;;4985986;28;20725;-70
2024/04/06 00:33:21;;;;;;;15.60;14.70;;;14.50;99.90;;;;;;5019509;28;20065;-69
2024/04/06 00:35:48;;;;;;;15.48;14.63;;;14.50;99.90;;;;;;4981756;28;20071;-69
2024/04/06 00:38:13;;;;;;;15.85;14.80;;;14.50;99.90;;;;;;5016395;28;20042;-70
2024/04/06 00:40:39;;;;;;;15.50;14.60;;;14.60;99.90;;;;;;5006245;28;20044;-68
2024/04/06 00:43:06;;;;;;;15.02;14.07;;;14.60;99.90;;;;;;4980452;28;20650;-70
2024/04/06 00:45:32;;;;;;;15.85;14.75;;;14.70;99.90;;;;;;4992380;28;20049;-69
2024/04/06 00:47:58;;;;;;;16.30;15.30;;;14.70;99.90;;;;;;4982417;28;20057;-69
2024/04/06 00:50:25;;;;;;;15.55;14.60;;;14.70;99.90;;;;;;4987755;28;20145;-70
2024/04/06 00:52:51;;;;;;;16.17;14.60;;;14.70;99.90;;;;;;5000465;28;20056;-69
2024/04/06 00:55:17;;;;;;;14.65;13.85;;;14.70;99.90;;;;;;4983662;28;20046;-69
2024/04/06 00:57:43;;;;;;;14.77;13.77;;;14.60;99.90;;;;;;5017707;28;20054;-70
2024/04/06 01:00:10;;;;;;;15.68;14.50;;;14.60;99.90;;;;;;5016433;28;20140;-70
2024/04/06 01:02:37;;;;;;;15.45;14.60;;;14.60;99.90;;;;;;5008603;28;20100;-70
2024/04/06 01:05:04;;;;;;;16.08;14.73;;;14.60;99.90;;;;;;4984583;28;20497;-69
2024/04/06 01:07:31;;;;;;;15.35;14.45;;;14.60;99.90;;;;;;5007768;28;20085;-67
2024/04/06 01:09:57;;;;;;;15.68;14.88;;;14.60;99.90;;;;;;4980904;28;20101;-68
2024/04/06 01:12:23;;;;;;;15.07;14.18;;;14.60;99.90;;;;;;5028960;28;20412;-68
2024/04/06 01:14:49;;;;;;;15.20;14.30;;;14.60;99.90;;;;;;4981566;28;20053;-66
2024/04/06 01:17:18;;;;;;;14.80;14.10;;;14.70;99.90;;;;;;4978440;28;20795;-68
2024/04/06 01:19:44;;;;;;;15.20;14.30;;;14.60;99.90;;;;;;5002515;28;20022;-69
2024/04/06 01:22:11;;;;;;;16.13;15.07;;;14.60;99.90;;;;;;5000947;28;20053;-67
2024/04/06 01:24:37;;;;;;;16.05;14.75;;;14.60;99.90;;;;;;4998641;28;20073;-68
2024/04/06 01:27:03;;;;;;;15.15;14.27;;;14.60;99.90;;;;;;4978366;28;20037;-67
2024/04/06 01:29:30;;;;;;;14.98;14.13;;;14.60;99.90;;;;;;4994409;28;20038;-68
2024/04/06 01:31:56;;;;;;;15.73;14.55;;;14.60;99.90;;;;;;4996420;28;20095;-69
2024/04/06 01:34:22;;;;;;;14.43;13.73;;;14.60;99.90;;;;;;5006952;28;20046;-68
2024/04/06 01:36:49;;;;;;;16.02;14.80;;;14.60;99.90;;;;;;4995285;28;20045;-69
2024/04/06 01:39:15;;;;;;;15.27;14.38;;;14.50;99.90;;;;;;4994984;28;20076;-68
2024/04/06 01:41:48;;;;;;;14.50;13.70;;;14.50;99.90;;;;;;4996950;28;20037;-70
2024/04/06 01:44:15;;;;;;;15.43;14.50;;;14.50;99.90;;;;;;4992358;28;20050;-68
2024/04/06 01:46:41;;;;;;;15.18;14.35;;;14.60;99.90;;;;;;5008151;28;20038;-69
2024/04/06 01:49:07;;;;;;;16.55;15.45;;;14.60;99.90;;;;;;4987490;28;20038;-69
2024/04/06 01:51:33;;;;;;;15.25;14.45;;;14.60;99.90;;;;;;4999413;28;20104;-69
2024/04/06 01:54:00;;;;;;;16.52;15.32;;;14.60;99.90;;;;;;4992444;28;20050;-69
2024/04/06 01:56:28;;;;;;;15.43;14.48;;;14.40;99.90;;;;;;4997274;28;20432;-68
2024/04/06 01:58:55;;;;;;;15.15;14.10;;;14.30;99.90;;;;;;4977380;28;20050;-66
2024/04/06 02:01:21;;;;;;;13.95;13.25;;;14.20;99.90;;;;;;4999454;28;20049;-69
2024/04/06 02:03:47;;;;;;;15.00;14.02;;;14.20;99.90;;;;;;4999654;28;20045;-70
2024/04/06 02:06:14;;;;;;;15.13;14.13;;;14.20;99.90;;;;;;5001202;28;20049;-69
2024/04/06 02:08:40;;;;;;;15.05;14.05;;;14.10;99.90;;;;;;4979595;28;20056;-68
2024/04/06 02:11:06;;;;;;;15.00;14.10;;;14.10;99.90;;;;;;4991735;28;20050;-69
2024/04/06 02:13:34;;;;;;;14.68;13.80;;;14.10;99.90;;;;;;4997017;28;20046;-69
2024/04/06 02:16:01;;;;;;;14.38;13.57;;;14.10;99.90;;;;;;4981266;28;20053;-69
2024/04/06 02:18:27;;;;;;;15.02;13.93;;;14.20;99.90;;;;;;5032418;28;20100;-69
2024/04/06 02:20:53;;;;;;;15.07;13.88;;;14.30;99.90;;;;;;4980220;28;20107;-68
2024/04/06 02:23:19;;;;;;;14.95;14.10;;;14.20;99.90;;;;;;4971110;28;20870;-69
2024/04/06 02:25:46;;;;;;;15.00;14.07;;;14.10;99.90;;;;;;4992179;28;20053;-69
2024/04/06 02:28:12;;;;;;;14.65;13.88;;;14.10;99.90;;;;;;4965870;28;20053;-69
2024/04/06 02:30:38;;;;;;;14.90;13.90;;;14.10;99.90;;;;;;4984277;28;20613;-69
2024/04/06 02:33:05;;;;;;;15.02;13.90;;;13.90;99.90;;;;;;4957661;28;20041;-67
2024/04/06 02:35:31;;;;;;;14.57;13.68;;;13.90;99.90;;;;;;4979665;28;20042;-69
2024/04/06 02:37:57;;;;;;;15.20;14.30;;;13.80;99.90;;;;;;4990336;28;20050;-68
2024/04/06 02:40:23;;;;;;;14.77;13.98;;;13.70;99.90;;;;;;4977809;28;20546;-70
2024/04/06 02:42:50;;;;;;;14.43;13.60;;;13.70;99.90;;;;;;4988384;28;20057;-69
2024/04/06 02:45:17;;;;;;;14.48;13.70;;;13.50;99.90;;;;;;4991617;28;20081;-68
2024/04/06 02:47:44;;;;;;;14.80;13.70;;;13.30;99.90;;;;;;4994921;28;20050;-68
2024/04/06 02:50:10;;;;;;;14.65;13.85;;;13.20;99.90;;;;;;4975618;28;20045;-69
2024/04/06 02:52:36;;;;;;;14.55;13.45;;;13.10;99.90;;;;;;5003211;28;20068;-68
2024/04/06 02:55:28;;;;;;;13.93;13.13;;;13.00;99.90;;;;;;4996402;28;20916;-68
2024/04/06 02:57:54;;;;;;;13.75;12.93;;;13.10;99.90;;;;;;5007911;28;20613;-68
2024/04/06 03:00:20;;;;;;;12.55;11.75;;;13.10;99.90;;;;;;4960601;28;20192;-68
2024/04/06 03:02:47;;;;;;;12.48;11.77;;;13.10;99.90;;;;;;4978141;28;20610;-67
2024/04/06 03:05:13;;;;;;;12.27;11.43;;;13.10;99.90;;;;;;4989191;28;20104;-69
2024/04/06 03:07:40;;;;;;;11.98;11.05;;;13.10;99.90;;;;;;4993412;28;20053;-69
2024/04/06 03:10:06;;;;;;;12.10;11.50;;;13.10;99.90;;;;;;4966838;28;20141;-68
2024/04/06 03:12:32;;;;;;;12.43;11.77;;;13.20;99.90;;;;;;4981843;28;20045;-67
2024/04/06 03:14:58;;;;;;;12.55;11.80;;;13.20;99.90;;;;;;4980557;28;20045;-69
2024/04/06 03:17:24;;;;;;;13.00;12.00;;;13.10;99.90;;;;;;4976699;28;20583;-68
2024/04/06 03:19:50;;;;;;;12.45;11.57;;;13.20;99.90;;;;;;4971511;28;20596;-69
2024/04/06 03:22:16;;;;;;;12.90;12.25;;;13.20;99.90;;;;;;4976831;28;20042;-68
2024/04/06 03:24:43;;;;;;;13.43;12.43;;;13.20;99.90;;;;;;4997148;28;20117;-68
2024/04/06 03:27:09;;;;;;;13.13;12.43;;;13.20;99.90;;;;;;4989305;28;20038;-67
2024/04/06 03:29:35;;;;;;;13.63;12.50;;;13.30;99.90;;;;;;4971475;28;20129;-69
2024/04/06 03:32:02;;;;;;;12.68;11.98;;;13.30;99.90;;;;;;4995426;28;20493;-67
2024/04/06 03:34:28;;;;;;;12.57;11.98;;;13.30;99.90;;;;;;5010202;28;20695;-68
2024/04/06 03:36:54;;;;;;;12.70;11.80;;;13.30;99.90;;;;;;4979919;28;20042;-68
2024/04/06 03:39:20;;;;;;;11.68;11.07;;;13.20;99.90;;;;;;4973501;28;20119;-68
2024/04/06 03:41:46;;;;;;;11.93;11.32;;;13.20;99.90;;;;;;4978102;28;20075;-67
2024/04/06 03:44:12;;;;;;;12.10;11.30;;;13.20;99.90;;;;;;4973380;28;20074;-69
2024/04/06 03:46:38;;;;;;;11.60;10.80;;;13.20;99.90;;;;;;4984521;28;20096;-68
2024/04/06 03:49:04;;;;;;;10.98;10.30;;;13.20;99.90;;;;;;4967284;28;20049;-69
2024/04/06 03:51:30;;;;;;;11.32;10.55;;;13.20;99.90;;;;;;4986533;28;20041;-69
2024/04/06 03:53:57;;;;;;;11.18;10.50;;;13.10;99.90;;;;;;4976606;28;20049;-69
2024/04/06 03:56:23;;;;;;;11.30;10.52;;;13.00;99.90;;;;;;4959544;28;20038;-68
2024/04/06 03:58:49;;;;;;;11.52;10.77;;;13.00;99.90;;;;;;4989562;28;20175;-69
2024/04/06 04:01:15;;;;;;;11.45;10.65;;;13.00;99.90;;;;;;4984956;28;20658;-68
2024/04/06 04:03:41;;;;;;;12.52;11.63;;;12.90;99.90;;;;;;4991205;28;20060;-67
2024/04/06 04:06:07;;;;;;;12.15;11.25;;;12.80;99.90;;;;;;4992858;28;20038;-67
2024/04/06 04:08:33;;;;;;;10.88;10.38;;;12.80;99.90;;;;;;4994509;28;20065;-69
2024/04/06 04:11:01;;;;;;;11.07;10.38;;;12.80;99.90;;;;;;4971079;28;20042;-69
2024/04/06 04:13:28;;;;;;;12.07;11.35;;;12.80;99.90;;;;;;4989413;28;20082;-69
2024/04/06 04:15:54;;;;;;;10.98;10.30;;;12.80;99.90;;;;;;4985411;28;20040;-70
2024/04/06 04:18:21;;;;;;;12.02;11.00;;;12.80;99.90;;;;;;4994299;28;20373;-68
2024/04/06 04:20:47;;;;;;;11.90;10.88;;;12.80;99.90;;;;;;5024341;28;20646;-68
2024/04/06 04:23:13;;;;;;;12.23;11.30;;;12.70;99.90;;;;;;4973597;28;20057;-67
2024/04/06 04:25:39;;;;;;;11.65;10.73;;;12.60;99.90;;;;;;4962393;28;20129;-69
2024/04/06 04:28:05;;;;;;;10.80;9.93;;;12.60;99.90;;;;;;4974612;28;20068;-68
2024/04/06 04:30:31;;;;;;;9.48;8.77;;;12.50;99.90;;;;;;4996133;28;20042;-68
2024/04/06 04:32:58;;;;;;;9.30;8.80;;;12.60;99.90;;;;;;4972669;28;20026;-67
2024/04/06 04:35:24;;;;;;;9.05;8.45;;;12.50;99.90;;;;;;4976999;28;20056;-68
2024/04/06 04:37:50;;;;;;;10.80;8.40;;;12.50;99.90;;;;;;4984965;28;20095;-69
2024/04/06 04:40:17;;;;;;;9.40;8.70;;;12.40;99.90;;;;;;4995953;28;20050;-68
2024/04/06 04:42:43;;;;;;;8.70;8.20;;;12.50;99.90;;;;;;4996141;28;20054;-67
2024/04/06 04:45:13;;;;;;;9.07;8.48;;;12.50;99.90;;;;;;5009251;28;20111;-67
2024/04/06 04:47:40;;;;;;;9.70;9.00;;;12.50;99.90;;;;;;4984340;28;20053;-69
2024/04/06 04:50:08;;;;;;;10.23;9.63;;;12.60;99.90;;;;;;4976860;28;20047;-67
2024/04/06 04:52:35;;;;;;;10.48;9.80;;;12.50;99.90;;;;;;4991068;28;20034;-69
2024/04/06 04:55:03;;;;;;;11.23;10.43;;;12.30;99.90;;;;;;4989491;28;20111;-69
2024/04/06 04:57:29;;;;;;;10.25;9.65;;;12.30;99.90;;;;;;5010926;28;20645;-68
2024/04/06 04:59:57;;;;;;;10.00;9.35;;;12.40;99.90;;;;;;4995769;28;20077;-69
2024/04/06 05:02:24;;;;;;;12.23;8.68;;;12.30;99.90;;;;;;4977061;28;20049;-71
2024/04/06 05:04:51;;;;;;;9.05;8.20;;;12.30;99.90;;;;;;4978983;28;20654;-68
2024/04/06 05:07:19;;;;;;;8.38;7.22;;;12.20;99.90;;;;;;4992573;28;20034;-68
2024/04/06 05:09:46;;;;;;;8.43;7.30;;;12.00;99.90;;;;;;4983699;28;20156;-68
2024/04/06 05:12:13;;;;;;;8.23;7.72;;;12.00;99.90;;;;;;4960803;28;20038;-67
2024/04/06 05:14:40;;;;;;;7.88;7.10;;;12.00;99.90;;;;;;4977252;28;20045;-69
2024/04/06 05:17:06;;;;;;;8.10;7.50;;;12.00;99.90;;;;;;4981893;28;20543;-68
2024/04/06 05:19:34;;;;;;;7.55;7.03;;;12.00;99.90;;;;;;5001356;28;20049;-68
2024/04/06 05:22:01;;;;;;;8.10;7.32;;;12.10;99.90;;;;;;4998628;28;20046;-67
2024/04/06 05:24:28;;;;;;;9.30;8.38;;;12.10;99.90;;;;;;4955538;28;20071;-69
2024/04/06 05:26:55;;;;;;;9.90;9.00;;;12.00;99.90;;;;;;4995650;28;20064;-68
2024/04/06 05:29:22;;;;;;;11.93;8.77;;;12.00;99.90;;;;;;4974012;28;20060;-68
2024/04/06 05:31:50;;;;;;;9.93;9.18;;;12.00;99.90;;;;;;4999918;28;20042;-69
2024/04/06 05:34:16;;;;;;;8.10;7.40;;;12.10;99.90;;;;;;4956496;28;20049;-69
2024/04/06 05:36:42;;;;;;;7.88;7.20;;;12.00;99.90;;;;;;4980139;28;20093;-68
2024/04/06 05:39:08;;;;;;;7.45;6.95;;;12.00;99.90;;;;;;4999529;28;20037;-69
2024/04/06 05:41:34;;;;;;;7.53;7.03;;;12.10;99.90;;;;;;4964094;28;20041;-69
2024/04/06 05:44:02;;;;;;;7.38;6.78;;;12.20;99.90;;;;;;4978930;28;20440;-67
2024/04/06 05:46:28;;;;;;;7.95;7.40;;;12.30;99.90;;;;;;4973343;28;20053;-68
2024/04/06 05:48:55;;;;;;;8.20;7.80;;;12.40;99.90;;;;;;4961806;28;20050;-68
2024/04/06 05:51:21;;;;;;;8.52;7.70;;;12.30;99.90;;;;;;4988715;28;20092;-67
2024/04/06 05:53:48;;;;;;;8.00;7.38;;;12.40;99.90;;;;;;4980700;28;20708;-68
2024/04/06 05:56:15;;;;;;;10.13;9.18;;;12.50;99.90;;;;;;4975646;28;20034;-69
2024/04/06 05:58:41;;;;;;;9.40;8.70;;;12.50;99.90;;;;;;4988948;28;20049;-68
2024/04/06 06:01:07;;;;;;;9.57;8.95;;;12.60;99.90;;;;;;4987980;28;20092;-67
2024/04/06 06:03:33;;;;;;;10.07;9.27;;;12.60;99.90;;;;;;4960962;28;21539;-68
2024/04/06 06:06:00;;;;;;;10.80;9.80;;;12.60;99.90;;;;;;5003026;28;20042;-69
2024/04/06 06:08:26;;;;;;;10.98;9.95;;;12.70;99.90;;;;;;4979563;28;20065;-68
2024/04/06 06:10:52;;;;;;;10.27;9.43;;;12.80;99.90;;;;;;4986528;28;20041;-70
2024/04/06 06:13:18;;;;;;;10.88;10.07;;;12.90;99.90;;;;;;5007896;28;20054;-68
2024/04/06 06:15:44;;;;;;;10.48;9.85;;;12.90;99.90;;;;;;5014998;28;20038;-68
2024/04/06 06:18:11;;;;;;;11.10;10.30;;;13.10;99.90;;;;;;4980162;28;20046;-69
2024/04/06 06:20:39;;;;;;;11.38;10.73;;;13.20;99.90;;;;;;4978546;28;20682;-69
2024/04/06 06:23:05;;;;;;;11.98;11.30;;;13.40;99.90;;;;;;4995893;28;20050;-69
2024/04/06 06:25:32;;;;;;;11.50;10.73;;;13.50;99.90;;;;;;5011229;28;20445;-68
2024/04/06 06:27:58;;;;;;;12.73;11.88;;;13.50;99.90;;;;;;4975242;28;20097;-69
2024/04/06 06:30:25;;;;;;;13.43;12.73;;;13.60;99.90;;;;;;4979501;28;20570;-69
2024/04/06 06:32:51;;;;;;;13.68;12.88;;;13.70;99.90;;;;;;4988857;28;20102;-69
2024/04/06 06:35:17;;;;;;;13.73;13.07;;;13.80;99.90;;;;;;4993671;28;20493;-67
2024/04/06 06:37:45;;;;;;;15.20;13.80;;;13.90;99.90;;;;;;4964774;28;20057;-69
2024/04/06 06:40:11;;;;;;;14.73;14.00;;;14.00;99.90;;;;;;4976254;28;20037;-69
2024/04/06 06:42:37;;;;;;;14.32;13.52;;;14.10;99.90;;;;;;4991817;28;21366;-69
2024/04/06 06:45:05;;;;;;;15.07;13.88;;;14.20;99.90;;;;;;4979036;28;20517;-68
2024/04/06 06:47:35;;;;;;;16.08;15.13;;;14.30;99.90;;;;;;4960086;28;20058;-69
2024/04/06 06:50:03;;;;;;;16.30;15.40;;;14.40;99.90;;;;;;4995073;28;20037;-68
2024/04/06 06:52:29;;;;;;;16.45;15.48;;;14.50;99.90;;;;;;4985080;28;21224;-68
2024/04/06 06:54:55;;;;;;;17.15;16.20;;;14.70;99.90;;;;;;4970436;28;20049;-69
2024/04/06 06:57:22;;;;;;;18.13;16.80;;;14.80;99.90;;;;;;4968574;28;20046;-68
2024/04/06 06:59:48;;;;;;;18.90;17.75;;;15.00;99.90;;;;;;4979301;28;20050;-69
2024/04/06 07:02:14;;;;;;;19.92;19.02;;;15.20;99.90;;;;;;4972836;28;20619;-68
2024/04/06 07:04:40;;;;;;;21.02;19.92;;;15.30;99.90;;;;;;4996274;28;20053;-67
2024/04/06 07:07:06;;;;;;;20.27;18.80;;;15.40;99.90;;;;;;4995311;28;20633;-68
2024/04/06 07:09:32;;;;;;;21.52;20.25;;;15.60;99.90;;;;;;4998635;28;20042;-68
2024/04/06 07:11:59;;;;;;;23.83;22.52;;;15.90;99.90;;;;;;4993932;28;20033;-67
2024/04/06 07:14:25;;;;;;;23.75;22.35;;;16.10;99.90;;;;;;5002443;28;20091;-68
2024/04/06 07:16:51;;;;;;;24.40;22.92;;;16.10;99.90;;;;;;5004221;28;20034;-67
2024/04/06 07:19:18;;;;;;;24.95;23.38;;;16.20;99.90;;;;;;5007908;28;20060;-68
2024/04/06 07:21:44;;;;;;;25.60;24.35;;;16.30;99.90;;;;;;4975067;28;20189;-70
2024/04/06 07:24:10;;;;;;;25.02;23.58;;;16.40;99.90;;;;;;4965161;28;20124;-69
2024/04/06 07:26:36;;;;;;;24.73;23.45;;;16.50;99.90;;;;;;4973945;28;20042;-69
2024/04/06 07:29:02;;;;;;;26.67;25.17;;;16.50;99.90;;;;;;4994872;28;20049;-70
2024/04/06 07:31:28;;;;;;;28.05;26.55;;;16.60;99.90;;;;;;4992789;28;20046;-70
2024/04/06 07:33:54;;;;;;;25.65;24.02;;;16.60;99.90;;;;;;4993315;28;20605;-70
2024/04/06 07:36:20;;;;;;;26.42;25.13;;;16.70;99.90;;;;;;5008286;28;20038;-69
2024/04/06 07:38:47;;;;;;;27.05;25.65;;;16.70;99.90;;;;;;5000160;28;20129;-68
2024/04/06 07:41:13;;;;;;;26.40;24.98;;;17.00;99.90;;;;;;4983092;28;20137;-68
2024/04/06 07:43:40;;;;;;;26.90;25.58;;;17.30;99.90;;;;;;5022683;28;20132;-70
2024/04/06 07:46:06;;;;;;;24.88;23.67;;;17.60;99.90;;;;;;5009804;28;21338;-69
2024/04/06 07:48:32;;;;;;;26.63;25.08;;;17.80;99.90;;;;;;4991638;28;20112;-68
2024/04/06 07:50:58;;;;;;;26.50;25.10;;;18.00;99.90;;;;;;4996226;28;20034;-69
2024/04/06 07:53:24;;;;;;;28.98;27.52;;;18.30;99.90;;;;;;4996642;28;20045;-70
2024/04/06 07:55:50;;;;;;;29.33;27.70;;;18.40;99.90;;;;;;4997503;28;20037;-70
2024/04/06 07:58:16;;;;;;;29.77;28.08;;;18.60;99.90;;;;;;4973790;28;20052;-69
2024/04/06 08:00:42;;;;;;;29.40;27.70;;;18.70;99.90;;;;;;4980749;28;20037;-69
2024/04/06 08:03:08;;;;;;;30.65;28.88;;;18.60;99.90;;;;;;4991706;28;20081;-68
2024/04/06 08:05:35;;;;;;;27.95;26.35;;;18.50;99.90;;;;;;4978036;28;20049;-68
2024/04/06 08:08:02;;;;;;;29.67;28.27;;;18.50;99.90;;;;;;4977783;28;20681;-68
2024/04/06 08:10:28;;;;;;;29.55;28.08;;;18.40;99.90;;;;;;4959235;28;20042;-69
2024/04/06 08:12:55;;;;;;;25.55;24.05;;;18.50;99.90;;;;;;4991494;28;20046;-68
2024/04/06 08:15:22;;;;;;;28.67;26.92;;;18.70;99.90;;;;;;5012190;28;20721;-68
2024/04/06 08:17:48;;;;;;;28.13;26.63;;;18.90;99.90;;;;;;4987488;28;20054;-69
2024/04/06 08:20:16;;;;;;;30.58;28.98;;;19.10;99.90;;;;;;5000089;28;20033;-68
2024/04/06 08:22:43;;;;;;;27.10;25.55;;;19.10;99.90;;;;;;5009632;28;20547;-70
2024/04/06 08:25:10;;;;;;;27.75;26.08;;;18.90;99.90;;;;;;4987306;28;20119;-69
2024/04/06 08:27:37;;;;;;;27.08;25.48;;;18.90;99.90;;;;;;4996585;28;20775;-69
2024/04/06 08:30:04;;;;;;;26.27;24.67;;;18.90;99.90;;;;;;4983500;28;20064;-68
2024/04/06 08:32:33;;;;;;;26.52;25.23;;;19.00;99.90;;;;;;4976796;28;20132;-69
2024/04/06 08:34:59;;;;;;;25.50;24.02;;;19.20;99.90;;;;;;4998514;28;20088;-70
2024/04/06 08:37:27;;;;;;;26.52;24.98;;;19.20;99.90;;;;;;5006865;28;20605;-68
2024/04/06 08:39:53;;;;;;;30.05;28.23;;;19.40;99.90;;;;;;4984021;28;20057;-71
2024/04/06 08:42:21;;;;;;;26.45;24.73;;;19.70;99.90;;;;;;4978721;28;20133;-69
2024/04/06 08:44:48;;;;;;;29.70;27.90;;;20.00;99.90;;;;;;5002019;28;20521;-68
2024/04/06 08:47:16;;;;;;;25.45;24.05;;;20.00;99.90;;;;;;4993428;28;20042;-69
2024/04/06 08:49:43;;;;;;;34.25;32.45;;;20.10;99.90;;;;;;4998977;28;20050;-70
2024/04/06 08:52:11;;;;;;;31.50;29.67;;;20.00;99.90;;;;;;4998150;28;20713;-69
2024/04/06 08:54:38;;;;;;;32.60;30.88;;;20.00;99.90;;;;;;4962818;28;20050;-70
2024/04/06 08:57:05;;;;;;;33.92;32.15;;;20.00;99.90;;;;;;4983532;28;20034;-69
2024/04/06 08:59:35;;;;;;;32.13;30.42;;;20.00;99.90;;;;;;4991793;28;20053;-69
2024/04/06 09:02:01;;;;;;;32.30;30.48;;;20.10;99.90;;;;;;4994431;28;20056;-70
2024/04/06 09:04:28;;;;;;;27.73;25.95;;;20.40;99.90;;;;;;4982579;28;20426;-70
2024/04/06 09:06:54;;;;;;;28.17;26.25;;;20.70;99.90;;;;;;4997931;28;20125;-70
2024/04/06 09:09:21;;;;;;;29.92;28.10;;;20.90;99.90;;;;;;4983965;28;20564;-69
2024/04/06 09:11:47;;;;;;;28.20;26.45;;;20.90;99.90;;;;;;4980537;28;20057;-69
2024/04/06 09:14:13;;;;;;;30.05;28.17;;;20.90;99.90;;;;;;4988712;28;20049;-70
2024/04/06 09:16:39;;;;;;;29.00;27.10;;;21.10;99.90;;;;;;4996610;28;20045;-69
2024/04/06 09:19:06;;;;;;;29.45;27.73;;;21.20;99.90;;;;;;5008710;28;20046;-70
2024/04/06 09:21:33;;;;;;;30.75;28.92;;;21.40;99.90;;;;;;4978092;28;20049;-68
2024/04/06 09:24:01;;;;;;;28.70;26.90;;;21.50;99.90;;;;;;4979381;28;20037;-69
2024/04/06 09:26:30;;;;;;;29.27;27.42;;;21.50;99.90;;;;;;5008147;28;20129;-71
2024/04/06 09:28:59;;;;;;;31.00;29.20;;;21.30;99.90;;;;;;4978751;28;20065;-70
2024/04/06 09:31:26;;;;;;;29.80;27.77;;;21.40;99.90;;;;;;4994474;28;20042;-69
2024/04/06 09:33:57;;;;;;;31.27;29.20;;;21.40;99.90;;;;;;5009083;28;20057;-69
2024/04/06 09:36:23;;;;;;;30.88;28.92;;;21.20;99.90;;;;;;5000082;28;20042;-70
2024/04/06 09:38:51;;;;;;;31.00;28.92;;;21.30;99.90;;;;;;4976471;28;20046;-68
2024/04/06 09:41:20;;;;;;;30.30;28.42;;;21.10;99.90;;;;;;4995693;28;20601;-71
2024/04/06 09:43:52;;;;;;;38.45;36.08;;;21.30;99.90;;;;;;4995154;28;20847;-70
2024/04/06 09:46:20;;;;;;;37.42;35.42;;;21.30;99.90;;;;;;4978143;28;20060;-69
2024/04/06 09:48:48;;;;;;;38.35;36.17;;;21.40;99.90;;;;;;4978219;28;20045;-70
2024/04/06 09:51:15;;;;;;;39.47;36.97;;;21.70;99.90;;;;;;4992379;28;20068;-69
2024/04/06 09:53:43;;;;;;;36.58;34.58;;;21.80;99.90;;;;;;4992510;28;20042;-70
2024/04/06 09:56:11;;;;;;;34.70;32.58;;;21.90;99.90;;;;;;4965431;28;20532;-70
2024/04/06 09:58:46;;;;;;;38.25;36.35;;;21.80;99.90;;;;;;4995017;28;20048;-68
2024/04/06 10:01:15;;;;;;;41.63;39.25;;;21.80;99.90;;;;;;5013692;28;20155;-69
2024/04/06 10:03:48;;;;;;;39.15;37.05;;;21.80;99.90;;;;;;4991327;28;20045;-70
2024/04/06 10:06:16;;;;;;;40.15;37.85;;;21.70;99.90;;;;;;4979728;28;20042;-70
2024/04/06 10:08:56;;;;;;;43.53;41.10;;;21.80;99.90;;;;;;4978726;28;20091;-70
2024/04/06 10:11:24;;;;;;;44.45;42.05;;;21.90;99.90;;;;;;4974499;28;20033;-67
2024/04/06 10:14:03;;;;;;;41.33;39.42;;;22.10;99.90;;;;;;4976558;28;20041;-69
2024/04/06 10:16:32;;;;;;;42.65;40.42;;;22.30;99.90;;;;;;4978664;28;20038;-69
2024/04/06 10:19:02;;;;;;;42.13;39.90;;;22.50;99.90;;;;;;4991279;28;20050;-69
2024/04/06 10:21:45;;;;;;;44.72;42.45;;;22.50;99.90;;;;;;4990753;28;20054;-70
2024/04/06 10:24:13;;;;;;;48.80;46.05;;;22.70;99.90;;;;;;4975881;28;20064;-69
2024/04/06 10:26:49;;;;;;;49.92;47.25;;;22.70;99.90;;;;;;4991312;28;20045;-69
2024/04/06 10:29:15;;;;;;;;;;;22.80;99.90;;;;;;4978245;28;20072;-71
2024/04/06 10:31:42;;;;;;;52.15;49.47;;;22.80;99.90;;;;;;4991744;28;19926;-67
2024/04/06 10:34:09;;;;;;;48.45;45.95;;;22.90;99.90;;;;;;4993843;28;20623;-69
2024/04/06 10:36:35;;;;;;;50.83;48.30;;;22.90;99.90;;;;;;5004220;28;20042;-69
2024/04/06 10:39:05;;;;;;;53.05;50.45;;;23.00;99.90;;;;;;4975016;28;20042;-68
2024/04/06 10:41:31;;;;;;;51.05;48.35;;;23.10;99.90;;;;;;4995850;28;20045;-67
2024/04/06 10:43:58;;;;;;;50.35;47.67;;;22.90;99.90;;;;;;4976044;28;20132;-67
2024/04/06 10:46:27;;;;;;;52.22;49.53;;;23.10;99.90;;;;;;4991450;28;20045;-68
2024/04/06 10:48:56;;;;;;;54.53;51.72;;;23.30;99.90;;;;;;4979048;28;20037;-69
2024/04/06 10:51:22;;;;;;;56.88;53.90;;;23.40;99.90;;;;;;5010433;28;20066;-68
2024/04/06 10:53:49;;;;;;;57.42;54.60;;;23.40;99.90;;;;;;4959696;28;20053;-68
2024/04/06 10:56:15;;;;;;;55.83;53.03;;;23.30;99.90;;;;;;4960996;28;20066;-69
2024/04/06 10:58:41;;;;;;;53.03;50.33;;;23.20;99.90;;;;;;5002344;28;20045;-68
2024/04/06 11:01:10;;;;;;;53.90;51.10;;;23.10;99.90;;;;;;4995519;28;20045;-69
2024/04/06 11:03:37;;;;;;;55.10;52.20;;;23.20;99.90;;;;;;4974561;28;20050;-69
2024/04/06 11:06:04;;;;;;;53.78;50.88;;;23.20;99.90;;;;;;4981886;28;20438;-68
2024/04/06 11:08:30;;;;;;;52.53;49.80;;;23.20;99.90;;;;;;4998214;28;20054;-69
2024/04/06 11:10:56;;;;;;;50.85;48.17;;;23.30;99.90;;;;;;4978611;28;20041;-69
2024/04/06 11:13:22;;;;;;;50.95;48.13;;;23.40;99.90;;;;;;4994634;28;20096;-68
2024/04/06 11:15:50;;;;;;;52.03;49.33;;;23.60;99.90;;;;;;4988603;28;20096;-69
2024/04/06 11:18:16;;;;;;;53.38;50.53;;;23.50;99.90;;;;;;4975903;28;20046;-68
2024/04/06 11:20:43;;;;;;;52.85;49.95;;;23.80;99.90;;;;;;4974614;28;20476;-68
2024/04/06 11:23:19;;;;;;;52.78;49.60;;;23.90;99.90;;;;;;4977890;28;20041;-69
2024/04/06 11:25:47;;;;;;;54.53;51.72;;;24.00;99.90;;;;;;4973604;28;20698;-69
2024/04/06 11:28:13;;;;;;;52.90;50.20;;;24.20;99.90;;;;;;5025669;28;20075;-69
2024/04/06 11:30:41;;;;;;;51.08;48.40;;;24.10;99.90;;;;;;4997971;28;20054;-69
2024/04/06 11:33:07;;;;;;;51.88;49.08;;;24.10;99.90;;;;;;4958094;28;20053;-69
2024/04/06 11:35:34;;;;;;;49.03;46.53;;;24.20;99.90;;;;;;5022625;28;20102;-69
2024/04/06 11:38:01;;;;;;;49.13;46.65;;;24.50;99.90;;;;;;4979580;28;20811;-70
2024/04/06 11:40:28;;;;;;;49.22;46.63;;;24.50;99.90;;;;;;4972850;28;20038;-69
2024/04/06 11:42:54;;;;;;;52.80;49.83;;;24.50;99.90;;;;;;4990730;28;20042;-68
2024/04/06 11:45:21;;;;;;;47.25;44.65;;;24.60;99.90;;;;;;4982483;28;20056;-70
2024/04/06 11:47:47;;;;;;;49.08;46.30;;;25.00;99.90;;;;;;4978240;28;20042;-69
2024/04/06 11:50:13;;;;;;;51.35;48.75;;;24.90;99.90;;;;;;4973609;28;20053;-70
2024/04/06 11:52:39;;;;;;;49.17;46.40;;;24.60;99.90;;;;;;4967005;28;20525;-67
2024/04/06 11:55:05;;;;;;;50.30;47.50;;;24.50;99.90;;;;;;4996176;28;20525;-69
2024/04/06 11:57:31;;;;;;;49.67;47.17;;;24.50;99.90;;;;;;4994979;28;20100;-68
2024/04/06 11:59:57;;;;;;;49.22;46.53;;;24.80;99.90;;;;;;4977415;28;20046;-67
2024/04/06 12:02:23;;;;;;;50.85;48.25;;;24.80;99.90;;;;;;4997919;28;20057;-68
2024/04/06 12:04:49;;;;;;;47.53;44.83;;;24.80;99.90;;;;;;5011889;28;20103;-69
2024/04/06 12:07:15;;;;;;;48.70;45.90;;;24.50;99.90;;;;;;5004438;28;20034;-68
2024/04/06 12:09:41;;;;;;;48.97;46.28;;;24.60;99.90;;;;;;4990224;28;20053;-69
2024/04/06 12:12:09;;;;;;;47.85;45.17;;;24.70;99.90;;;;;;4988288;28;20038;-68
2024/04/06 12:14:35;;;;;;;48.05;45.58;;;24.70;99.90;;;;;;5017036;28;20125;-69
2024/04/06 12:17:02;;;;;;;46.20;43.72;;;24.60;99.90;;;;;;4982610;28;20045;-67
2024/04/06 12:19:28;;;;;;;49.83;47.03;;;24.60;99.90;;;;;;4994481;28;20038;-68
2024/04/06 12:21:54;;;;;;;48.42;45.95;;;24.60;99.90;;;;;;5004027;28;20132;-69
2024/04/06 12:24:22;;;;;;;46.80;44.30;;;24.50;99.90;;;;;;4985490;28;20053;-69
2024/04/06 12:26:48;;;;;;;49.88;47.00;;;24.40;99.90;;;;;;4991668;28;20304;-69
2024/04/06 12:29:15;;;;;;;49.55;47.08;;;24.40;99.90;;;;;;4976486;28;20041;-69